Venus Seven — H9RN — position and weather

sailwx.info

Track history (hours):
 
Tides and Currents Weather Stations Pressure Air Temp Water Temp Dewpoint Dewpoint Depression Visibility Wind Speed Wind Dir Waves Ship Positions

Venus Seven

Last reported at 2015-Apr-20 05:33 UTC. Time now 2015-Apr-21 14:37 UTC.
Position N 24°13' E 120°29'.

Length 93 m; draft 5 m.

Type: Cargo ship. MMSI: 353405000.

Date/timePositionNaut miles runAvg speedWind from/ knotsBaromVisibWave heightAir tempDewpointWater temp
2015-Apr-20 05:33N 24°13' E 120°29'81 6.1
2015-Apr-19 16:12N 22°57' E 120°00'1214.0
2015-Apr-19 15:19N 22°46' E 120°06'1013.6
2015-Apr-19 14:33N 22°37' E 120°11'9 9.3
2015-Apr-19 13:33N 22°33' E 120°20'0 0.4
2015-Apr-19 12:33N 22°33' E 120°21'0 0.1
2015-Apr-19 11:33N 22°33' E 120°21'0 0.0
2015-Apr-19 10:33N 22°33' E 120°21'0 0.0
2015-Apr-19 09:33N 22°33' E 120°21'5 4.7
2015-Apr-19 08:33N 22°36' E 120°18'0 0.2
2015-Apr-19 07:33N 22°36' E 120°18'0 0.0
2015-Apr-19 06:33N 22°36' E 120°18'0 0.0
2015-Apr-19 05:18N 22°36' E 120°18'0 0.0
2015-Apr-19 04:33N 22°36' E 120°18'0 0.0
2015-Apr-19 03:33N 22°36' E 120°18'0 0.1
2015-Apr-19 02:33N 22°36' E 120°18'0 0.1
2015-Apr-19 01:33N 22°36' E 120°18'0 0.1
2015-Apr-19 00:33N 22°36' E 120°18'0 0.0
2015-Apr-18 23:33N 22°36' E 120°18'0 0.0
2015-Apr-18 22:33N 22°36' E 120°18'0 0.1
2015-Apr-18 21:30N 22°36' E 120°18'0 0.0
2015-Apr-18 20:33N 22°36' E 120°18'0 0.0
2015-Apr-18 19:33N 22°36' E 120°18'0 0.1
2015-Apr-18 18:33N 22°36' E 120°18'0 0.0
2015-Apr-18 17:33N 22°36' E 120°18'0 0.1
2015-Apr-18 16:33N 22°36' E 120°18'0 0.1
2015-Apr-18 15:33N 22°36' E 120°18'0 0.1
2015-Apr-18 14:30N 22°36' E 120°18'0 0.1
2015-Apr-18 13:33N 22°36' E 120°18'0 0.1
2015-Apr-18 12:30N 22°36' E 120°18'0 0.0
2015-Apr-18 11:34N 22°36' E 120°18'6 6.3
2015-Apr-18 10:33N 22°40' E 120°12'1212.3
2015-Apr-18 09:33N 22°50' E 120°05'1312.5
2015-Apr-18 08:31N 23°02' E 119°60'  
2015-Apr-14 08:34N 34°03' E 134°55'1211.7
2015-Apr-14 07:33N 34°14' E 134°58'1711.6
2015-Apr-14 06:07N 34°28' E 135°09'713.5
2015-Apr-14 05:33N 34°33' E 135°16'9 8.7
2015-Apr-14 04:31N 34°38' E 135°25'0 0.0
2015-Apr-14 03:31N 34°38' E 135°25'0 0.0
2015-Apr-14 02:31N 34°38' E 135°25'0 0.0
2015-Apr-14 01:25N 34°38' E 135°25'0 0.0
2015-Apr-14 00:31N 34°38' E 135°25'0 0.0
2015-Apr-13 23:31N 34°38' E 135°25'0 0.0
2015-Apr-13 22:31N 34°38' E 135°25'0 0.0
2015-Apr-13 21:31N 34°38' E 135°25'0 0.0
2015-Apr-13 20:31N 34°38' E 135°25'0 0.0
2015-Apr-13 19:31N 34°38' E 135°25'0 0.0
2015-Apr-13 18:31N 34°38' E 135°25'0 0.0
2015-Apr-13 17:31N 34°38' E 135°25'0 0.0
2015-Apr-13 16:19N 34°38' E 135°25'0 0.0
2015-Apr-13 15:25N 34°38' E 135°25'0 0.0
2015-Apr-13 14:31N 34°38' E 135°25'0 0.0
2015-Apr-13 13:25N 34°38' E 135°25'0 0.0
2015-Apr-13 12:25N 34°38' E 135°25'0 0.0
2015-Apr-13 11:31N 34°38' E 135°25'0 0.0
2015-Apr-13 10:31N 34°38' E 135°25'0 0.0
2015-Apr-13 09:31N 34°38' E 135°25'0 0.0
2015-Apr-13 08:31N 34°38' E 135°25'0 0.0
2015-Apr-13 07:25N 34°38' E 135°25'0 0.0
2015-Apr-13 06:25N 34°38' E 135°25'0 0.0
2015-Apr-13 05:31N 34°38' E 135°25'0 0.0
2015-Apr-13 04:30N 34°38' E 135°25'0 0.0
2015-Apr-13 03:12N 34°38' E 135°25'0 0.0
2015-Apr-13 02:30N 34°38' E 135°25'0 0.0
2015-Apr-13 01:24N 34°38' E 135°25'0 0.0
2015-Apr-13 00:24N 34°38' E 135°25'0 0.0
2015-Apr-12 23:30N 34°38' E 135°25'0 0.0
2015-Apr-12 22:30N 34°38' E 135°25'2 1.8
2015-Apr-12 21:33N 34°37' E 135°23'0 0.2
2015-Apr-12 20:33N 34°37' E 135°23'0 0.0
2015-Apr-12 19:33N 34°37' E 135°23'0 0.0
2015-Apr-12 18:33N 34°37' E 135°23'0 0.0
2015-Apr-12 17:27N 34°37' E 135°23'0 0.0
2015-Apr-12 16:27N 34°37' E 135°23'0 0.0
2015-Apr-12 15:27N 34°37' E 135°23'0 0.0
2015-Apr-12 14:33N 34°37' E 135°23'0 0.0
2015-Apr-12 13:33N 34°37' E 135°23'0 0.0
2015-Apr-12 12:27N 34°37' E 135°23'0 0.1
2015-Apr-12 11:33N 34°37' E 135°23'0 0.0
2015-Apr-12 10:27N 34°37' E 135°23'0 0.1
2015-Apr-12 09:33N 34°37' E 135°23'0 0.0
2015-Apr-12 08:33N 34°37' E 135°23'0 0.0
2015-Apr-12 07:27N 34°37' E 135°23'0 0.0
2015-Apr-12 06:21N 34°37' E 135°23'0 0.0
2015-Apr-12 05:33N 34°37' E 135°23'0 0.1
2015-Apr-12 04:33N 34°37' E 135°23'0 0.0
2015-Apr-12 03:27N 34°37' E 135°23'0 0.0
2015-Apr-12 02:33N 34°37' E 135°23'0 0.0
2015-Apr-12 01:33N 34°37' E 135°23'0 0.0
2015-Apr-12 00:33N 34°37' E 135°23'0 0.0
2015-Apr-11 23:33N 34°37' E 135°23'0 0.0
2015-Apr-11 22:33N 34°37' E 135°23'0 0.0
2015-Apr-11 21:27N 34°37' E 135°23'0 0.0
2015-Apr-11 20:33N 34°37' E 135°23'0 0.0
2015-Apr-11 19:33N 34°37' E 135°23'0 0.0
2015-Apr-11 18:33N 34°37' E 135°23'0 0.0
2015-Apr-11 17:33N 34°37' E 135°23'0 0.0
2015-Apr-11 16:33N 34°37' E 135°23'0 0.0
2015-Apr-11 15:32N 34°37' E 135°23'4 4.3
2015-Apr-11 14:34N 34°36' E 135°18'1212.0
2015-Apr-11 13:33N 34°36' E 135°03'1311.3
2015-Apr-11 12:25N 34°33' E 134°48'  
Track history (hours):
 
Tides and Currents Weather Stations Pressure Air Temp Water Temp Dewpoint Dewpoint Depression Visibility Wind Speed Wind Dir Waves Ship Positions

Venus Seven

Last reported at 2015-Apr-20 05:33 UTC. Time now 2015-Apr-21 14:37 UTC.
Position N 24°13' E 120°29'.

Length 93 m; draft 5 m.

Type: Cargo ship. MMSI: 353405000.

Date/timePositionNaut miles runAvg speedWind from/ knotsBaromVisibWave heightAir tempDewpointWater temp
2015-Apr-20 05:33N 24°13' E 120°29'81 6.1
2015-Apr-19 16:12N 22°57' E 120°00'1214.0
2015-Apr-19 15:19N 22°46' E 120°06'1013.6
2015-Apr-19 14:33N 22°37' E 120°11'9 9.3
2015-Apr-19 13:33N 22°33' E 120°20'0 0.4
2015-Apr-19 12:33N 22°33' E 120°21'0 0.1
2015-Apr-19 11:33N 22°33' E 120°21'0 0.0
2015-Apr-19 10:33N 22°33' E 120°21'0 0.0
2015-Apr-19 09:33N 22°33' E 120°21'5 4.7
2015-Apr-19 08:33N 22°36' E 120°18'0 0.2
2015-Apr-19 07:33N 22°36' E 120°18'0 0.0
2015-Apr-19 06:33N 22°36' E 120°18'0 0.0
2015-Apr-19 05:18N 22°36' E 120°18'0 0.0
2015-Apr-19 04:33N 22°36' E 120°18'0 0.0
2015-Apr-19 03:33N 22°36' E 120°18'0 0.1
2015-Apr-19 02:33N 22°36' E 120°18'0 0.1
2015-Apr-19 01:33N 22°36' E 120°18'0 0.1
2015-Apr-19 00:33N 22°36' E 120°18'0 0.0
2015-Apr-18 23:33N 22°36' E 120°18'0 0.0
2015-Apr-18 22:33N 22°36' E 120°18'0 0.1
2015-Apr-18 21:30N 22°36' E 120°18'0 0.0
2015-Apr-18 20:33N 22°36' E 120°18'0 0.0
2015-Apr-18 19:33N 22°36' E 120°18'0 0.1
2015-Apr-18 18:33N 22°36' E 120°18'0 0.0
2015-Apr-18 17:33N 22°36' E 120°18'0 0.1
2015-Apr-18 16:33N 22°36' E 120°18'0 0.1
2015-Apr-18 15:33N 22°36' E 120°18'0 0.1
2015-Apr-18 14:30N 22°36' E 120°18'0 0.1
2015-Apr-18 13:33N 22°36' E 120°18'0 0.1
2015-Apr-18 12:30N 22°36' E 120°18'0 0.0
2015-Apr-18 11:34N 22°36' E 120°18'6 6.3
2015-Apr-18 10:33N 22°40' E 120°12'1212.3
2015-Apr-18 09:33N 22°50' E 120°05'1312.5
2015-Apr-18 08:31N 23°02' E 119°60'  
2015-Apr-14 08:34N 34°03' E 134°55'1211.7
2015-Apr-14 07:33N 34°14' E 134°58'1711.6
2015-Apr-14 06:07N 34°28' E 135°09'713.5
2015-Apr-14 05:33N 34°33' E 135°16'9 8.7
2015-Apr-14 04:31N 34°38' E 135°25'0 0.0
2015-Apr-14 03:31N 34°38' E 135°25'0 0.0
2015-Apr-14 02:31N 34°38' E 135°25'0 0.0
2015-Apr-14 01:25N 34°38' E 135°25'0 0.0
2015-Apr-14 00:31N 34°38' E 135°25'0 0.0
2015-Apr-13 23:31N 34°38' E 135°25'0 0.0
2015-Apr-13 22:31N 34°38' E 135°25'0 0.0
2015-Apr-13 21:31N 34°38' E 135°25'0 0.0
2015-Apr-13 20:31N 34°38' E 135°25'0 0.0
2015-Apr-13 19:31N 34°38' E 135°25'0 0.0
2015-Apr-13 18:31N 34°38' E 135°25'0 0.0
2015-Apr-13 17:31N 34°38' E 135°25'0 0.0
2015-Apr-13 16:19N 34°38' E 135°25'0 0.0
2015-Apr-13 15:25N 34°38' E 135°25'0 0.0
2015-Apr-13 14:31N 34°38' E 135°25'0 0.0
2015-Apr-13 13:25N 34°38' E 135°25'0 0.0
2015-Apr-13 12:25N 34°38' E 135°25'0 0.0
2015-Apr-13 11:31N 34°38' E 135°25'0 0.0
2015-Apr-13 10:31N 34°38' E 135°25'0 0.0
2015-Apr-13 09:31N 34°38' E 135°25'0 0.0
2015-Apr-13 08:31N 34°38' E 135°25'0 0.0
2015-Apr-13 07:25N 34°38' E 135°25'0 0.0
2015-Apr-13 06:25N 34°38' E 135°25'0 0.0
2015-Apr-13 05:31N 34°38' E 135°25'0 0.0
2015-Apr-13 04:30N 34°38' E 135°25'0 0.0
2015-Apr-13 03:12N 34°38' E 135°25'0 0.0
2015-Apr-13 02:30N 34°38' E 135°25'0 0.0
2015-Apr-13 01:24N 34°38' E 135°25'0 0.0
2015-Apr-13 00:24N 34°38' E 135°25'0 0.0
2015-Apr-12 23:30N 34°38' E 135°25'0 0.0
2015-Apr-12 22:30N 34°38' E 135°25'2 1.8
2015-Apr-12 21:33N 34°37' E 135°23'0 0.2
2015-Apr-12 20:33N 34°37' E 135°23'0 0.0
2015-Apr-12 19:33N 34°37' E 135°23'0 0.0
2015-Apr-12 18:33N 34°37' E 135°23'0 0.0
2015-Apr-12 17:27N 34°37' E 135°23'0 0.0
2015-Apr-12 16:27N 34°37' E 135°23'0 0.0
2015-Apr-12 15:27N 34°37' E 135°23'0 0.0
2015-Apr-12 14:33N 34°37' E 135°23'0 0.0
2015-Apr-12 13:33N 34°37' E 135°23'0 0.0
2015-Apr-12 12:27N 34°37' E 135°23'0 0.1
2015-Apr-12 11:33N 34°37' E 135°23'0 0.0
2015-Apr-12 10:27N 34°37' E 135°23'0 0.1
2015-Apr-12 09:33N 34°37' E 135°23'0 0.0
2015-Apr-12 08:33N 34°37' E 135°23'0 0.0
2015-Apr-12 07:27N 34°37' E 135°23'0 0.0
2015-Apr-12 06:21N 34°37' E 135°23'0 0.0
2015-Apr-12 05:33N 34°37' E 135°23'0 0.1
2015-Apr-12 04:33N 34°37' E 135°23'0 0.0
2015-Apr-12 03:27N 34°37' E 135°23'0 0.0
2015-Apr-12 02:33N 34°37' E 135°23'0 0.0
2015-Apr-12 01:33N 34°37' E 135°23'0 0.0
2015-Apr-12 00:33N 34°37' E 135°23'0 0.0
2015-Apr-11 23:33N 34°37' E 135°23'0 0.0
2015-Apr-11 22:33N 34°37' E 135°23'0 0.0
2015-Apr-11 21:27N 34°37' E 135°23'0 0.0
2015-Apr-11 20:33N 34°37' E 135°23'0 0.0
2015-Apr-11 19:33N 34°37' E 135°23'0 0.0
2015-Apr-11 18:33N 34°37' E 135°23'0 0.0
2015-Apr-11 17:33N 34°37' E 135°23'0 0.0
2015-Apr-11 16:33N 34°37' E 135°23'0 0.0
2015-Apr-11 15:32N 34°37' E 135°23'4 4.3
2015-Apr-11 14:34N 34°36' E 135°18'1212.0
2015-Apr-11 13:33N 34°36' E 135°03'1311.3
2015-Apr-11 12:25N 34°33' E 134°48'  

Dump ship's entire track history